sensor_id;sensor_type;location;lat;lon;timestamp;pressure;altitude;pressure_sealevel;temperature;humidity
72525;BME280;60547;48.502;8.996;2023-02-13T00:01:49;99838.66;;;-0.12;87.19
72525;BME280;60547;48.502;8.996;2023-02-13T00:04:15;99840.13;;;-0.14;87.47
72525;BME280;60547;48.502;8.996;2023-02-13T00:06:40;99844.47;;;-0.13;87.99
72525;BME280;60547;48.502;8.996;2023-02-13T00:09:06;99842.34;;;-0.16;87.74
72525;BME280;60547;48.502;8.996;2023-02-13T00:11:35;99835.75;;;-0.15;88.31
72525;BME280;60547;48.502;8.996;2023-02-13T00:14:01;99837.06;;;-0.13;89.02
72525;BME280;60547;48.502;8.996;2023-02-13T00:16:27;99839.31;;;-0.15;88.45
72525;BME280;60547;48.502;8.996;2023-02-13T00:18:52;99841.38;;;-0.20;88.33
72525;BME280;60547;48.502;8.996;2023-02-13T00:21:18;99842.69;;;-0.09;88.16
72525;BME280;60547;48.502;8.996;2023-02-13T00:23:43;99843.34;;;-0.12;88.20
72525;BME280;60547;48.502;8.996;2023-02-13T00:26:11;99842.88;;;-0.06;88.04
72525;BME280;60547;48.502;8.996;2023-02-13T00:28:37;99840.47;;;0.02;88.55
72525;BME280;60547;48.502;8.996;2023-02-13T00:31:05;99843.19;;;-0.07;88.61
72525;BME280;60547;48.502;8.996;2023-02-13T00:33:31;99851.06;;;-0.06;89.03
72525;BME280;60547;48.502;8.996;2023-02-13T00:36:08;99856.72;;;-0.02;89.68
72525;BME280;60547;48.502;8.996;2023-02-13T00:38:35;99842.88;;;-0.06;90.03
72525;BME280;60547;48.502;8.996;2023-02-13T00:41:02;99849.16;;;-0.05;91.00
72525;BME280;60547;48.502;8.996;2023-02-13T00:43:27;99845.28;;;-0.04;91.64
72525;BME280;60547;48.502;8.996;2023-02-13T00:45:53;99844.00;;;-0.07;92.60
72525;BME280;60547;48.502;8.996;2023-02-13T00:48:19;99846.72;;;-0.07;93.28
72525;BME280;60547;48.502;8.996;2023-02-13T00:50:45;99852.69;;;-0.05;93.53
72525;BME280;60547;48.502;8.996;2023-02-13T00:53:11;99853.50;;;-0.04;93.94
72525;BME280;60547;48.502;8.996;2023-02-13T00:55:37;99851.88;;;-0.05;93.98
72525;BME280;60547;48.502;8.996;2023-02-13T00:58:02;99845.91;;;-0.07;93.40
72525;BME280;60547;48.502;8.996;2023-02-13T01:00:28;99844.31;;;-0.08;93.39
72525;BME280;60547;48.502;8.996;2023-02-13T01:02:53;99847.38;;;-0.10;93.67
72525;BME280;60547;48.502;8.996;2023-02-13T01:05:19;99838.19;;;-0.14;93.54
72525;BME280;60547;48.502;8.996;2023-02-13T01:07:44;99838.66;;;-0.12;93.86
72525;BME280;60547;48.502;8.996;2023-02-13T01:10:10;99836.88;;;-0.16;94.21
72525;BME280;60547;48.502;8.996;2023-02-13T01:12:36;99845.91;;;-0.16;94.19
72525;BME280;60547;48.502;8.996;2023-02-13T01:15:03;99833.66;;;-0.18;94.53
72525;BME280;60547;48.502;8.996;2023-02-13T01:17:29;99837.38;;;-0.14;94.03
72525;BME280;60547;48.502;8.996;2023-02-13T01:19:54;99831.25;;;-0.20;94.85
72525;BME280;60547;48.502;8.996;2023-02-13T01:22:20;99837.19;;;-0.26;95.07
72525;BME280;60547;48.502;8.996;2023-02-13T01:24:45;99840.41;;;-0.24;95.06
72525;BME280;60547;48.502;8.996;2023-02-13T01:27:11;99837.19;;;-0.26;95.03
72525;BME280;60547;48.502;8.996;2023-02-13T01:29:36;99838.47;;;-0.24;95.71
72525;BME280;60547;48.502;8.996;2023-02-13T01:32:02;99834.13;;;-0.25;95.62
72525;BME280;60547;48.502;8.996;2023-02-13T01:34:31;99829.63;;;-0.21;94.95
72525;BME280;60547;48.502;8.996;2023-02-13T01:36:56;99834.63;;;-0.14;94.54
72525;BME280;60547;48.502;8.996;2023-02-13T01:39:22;99831.56;;;-0.21;94.38
72525;BME280;60547;48.502;8.996;2023-02-13T01:41:47;99827.06;;;-0.17;94.23
72525;BME280;60547;48.502;8.996;2023-02-13T01:44:51;99832.69;;;-0.22;94.09
72525;BME280;60547;48.502;8.996;2023-02-13T01:47:28;99821.41;;;-0.29;94.51
72525;BME280;60547;48.502;8.996;2023-02-13T01:50:35;99824.63;;;-0.27;94.20
72525;BME280;60547;48.502;8.996;2023-02-13T01:55:34;99825.72;;;-0.37;95.32
72525;BME280;60547;48.502;8.996;2023-02-13T01:58:11;99818.63;;;-0.38;94.94
72525;BME280;60547;48.502;8.996;2023-02-13T02:00:40;99815.25;;;-0.44;94.13
72525;BME280;60547;48.502;8.996;2023-02-13T02:03:14;99815.38;;;-0.49;94.07
72525;BME280;60547;48.502;8.996;2023-02-13T02:05:41;99816.38;;;-0.45;94.01
72525;BME280;60547;48.502;8.996;2023-02-13T02:08:09;99823.09;;;-0.51;93.69
72525;BME280;60547;48.502;8.996;2023-02-13T02:10:35;99812.91;;;-0.68;93.86
72525;BME280;60547;48.502;8.996;2023-02-13T02:13:08;99826.19;;;-0.75;93.38
72525;BME280;60547;48.502;8.996;2023-02-13T02:15:35;99819.97;;;-0.67;92.69
72525;BME280;60547;48.502;8.996;2023-02-13T02:18:01;99817.41;;;-0.63;92.62
72525;BME280;60547;48.502;8.996;2023-02-13T02:29:27;99818.09;;;-0.88;92.63
72525;BME280;60547;48.502;8.996;2023-02-13T02:31:47;99830.75;;;-0.92;93.16
72525;BME280;60547;48.502;8.996;2023-02-13T02:42:42;99822.16;;;-1.08;92.56
72525;BME280;60547;48.502;8.996;2023-02-13T02:45:27;99829.84;;;-1.10;92.27
72525;BME280;60547;48.502;8.996;2023-02-13T02:51:12;99843.00;;;-1.12;91.63
72525;BME280;60547;48.502;8.996;2023-02-13T02:56:36;99839.91;;;-1.19;91.31
72525;BME280;60547;48.502;8.996;2023-02-13T02:59:07;99827.06;;;-1.19;91.15
72525;BME280;60547;48.502;8.996;2023-02-13T03:01:55;99841.47;;;-1.27;91.47
72525;BME280;60547;48.502;8.996;2023-02-13T03:04:44;99845.31;;;-1.28;91.28
72525;BME280;60547;48.502;8.996;2023-02-13T03:07:28;99840.28;;;-1.35;91.69
72525;BME280;60547;48.502;8.996;2023-02-13T03:10:02;99828.19;;;-1.42;91.98
72525;BME280;60547;48.502;8.996;2023-02-13T03:13:09;99835.88;;;-1.44;92.23
72525;BME280;60547;48.502;8.996;2023-02-13T03:15:47;99828.00;;;-1.46;92.00
72525;BME280;60547;48.502;8.996;2023-02-13T03:18:34;99837.59;;;-1.48;91.13
72525;BME280;60547;48.502;8.996;2023-02-13T03:24:24;99846.56;;;-1.34;90.86
72525;BME280;60547;48.502;8.996;2023-02-13T03:27:02;99842.22;;;-1.35;90.73
72525;BME280;60547;48.502;8.996;2023-02-13T03:29:46;99847.78;;;-1.40;90.73
72525;BME280;60547;48.502;8.996;2023-02-13T03:35:06;99853.00;;;-1.52;91.27
72525;BME280;60547;48.502;8.996;2023-02-13T03:38:02;99866.63;;;-1.52;91.26
72525;BME280;60547;48.502;8.996;2023-02-13T03:40:41;99871.09;;;-1.56;91.48
72525;BME280;60547;48.502;8.996;2023-02-13T03:43:31;99856.34;;;-1.55;92.15
72525;BME280;60547;48.502;8.996;2023-02-13T03:45:58;99860.69;;;-1.54;91.55
72525;BME280;60547;48.502;8.996;2023-02-13T03:48:31;99847.47;;;-1.61;91.82
72525;BME280;60547;48.502;8.996;2023-02-13T03:53:59;99859.19;;;-1.60;92.96
72525;BME280;60547;48.502;8.996;2023-02-13T03:56:26;99859.78;;;-1.64;92.53
72525;BME280;60547;48.502;8.996;2023-02-13T03:59:20;99867.75;;;-1.53;91.71
72525;BME280;60547;48.502;8.996;2023-02-13T04:02:00;99865.03;;;-1.53;91.22
72525;BME280;60547;48.502;8.996;2023-02-13T04:07:17;99863.09;;;-1.53;91.38
72525;BME280;60547;48.502;8.996;2023-02-13T04:10:14;99864.22;;;-1.54;91.48
72525;BME280;60547;48.502;8.996;2023-02-13T04:15:33;99867.66;;;-1.62;91.28
72525;BME280;60547;48.502;8.996;2023-02-13T04:18:11;99883.25;;;-1.63;91.53
72525;BME280;60547;48.502;8.996;2023-02-13T04:20:38;99886.47;;;-1.60;91.32
72525;BME280;60547;48.502;8.996;2023-02-13T04:23:07;99892.03;;;-1.66;91.67
72525;BME280;60547;48.502;8.996;2023-02-13T04:25:35;99884.28;;;-1.72;91.51
72525;BME280;60547;48.502;8.996;2023-02-13T04:28:02;99877.63;;;-1.80;91.60
72525;BME280;60547;48.502;8.996;2023-02-13T04:30:27;99879.84;;;-1.82;91.69
72525;BME280;60547;48.502;8.996;2023-02-13T04:32:53;99879.53;;;-1.80;91.47
72525;BME280;60547;48.502;8.996;2023-02-13T04:35:18;99889.34;;;-1.79;91.36
72525;BME280;60547;48.502;8.996;2023-02-13T04:37:44;99889.63;;;-1.81;91.19
72525;BME280;60547;48.502;8.996;2023-02-13T04:40:09;99890.16;;;-1.79;90.69
72525;BME280;60547;48.502;8.996;2023-02-13T04:42:35;99885.50;;;-1.78;90.61
72525;BME280;60547;48.502;8.996;2023-02-13T04:45:01;99885.28;;;-1.82;90.28
72525;BME280;60547;48.502;8.996;2023-02-13T04:47:26;99883.69;;;-1.83;89.25
72525;BME280;60547;48.502;8.996;2023-02-13T04:49:51;99890.16;;;-1.79;89.38
72525;BME280;60547;48.502;8.996;2023-02-13T04:52:17;99892.97;;;-1.84;89.33
72525;BME280;60547;48.502;8.996;2023-02-13T04:54:42;99886.13;;;-1.95;89.11
72525;BME280;60547;48.502;8.996;2023-02-13T04:57:08;99881.69;;;-2.05;89.32
72525;BME280;60547;48.502;8.996;2023-02-13T04:59:34;99883.31;;;-2.04;89.64
72525;BME280;60547;48.502;8.996;2023-02-13T05:01:59;99887.34;;;-2.01;89.62
72525;BME280;60547;48.502;8.996;2023-02-13T05:04:26;99883.91;;;-2.07;89.32
72525;BME280;60547;48.502;8.996;2023-02-13T05:06:54;99892.41;;;-2.08;89.42
72525;BME280;60547;48.502;8.996;2023-02-13T05:09:21;99891.88;;;-2.10;89.06
72525;BME280;60547;48.502;8.996;2023-02-13T05:11:51;99894.09;;;-2.12;89.16
72525;BME280;60547;48.502;8.996;2023-02-13T05:14:17;99899.38;;;-2.16;89.19
72525;BME280;60547;48.502;8.996;2023-02-13T05:16:47;99896.63;;;-2.16;89.11
72525;BME280;60547;48.502;8.996;2023-02-13T05:19:15;99898.06;;;-2.18;88.23
72525;BME280;60547;48.502;8.996;2023-02-13T05:21:41;99895.00;;;-2.31;88.92
72525;BME280;60547;48.502;8.996;2023-02-13T05:24:25;99901.28;;;-2.30;88.63
72525;BME280;60547;48.502;8.996;2023-02-13T05:26:50;99897.03;;;-2.36;88.82
72525;BME280;60547;48.502;8.996;2023-02-13T05:29:16;99889.47;;;-2.39;89.27
72525;BME280;60547;48.502;8.996;2023-02-13T05:31:49;99883.50;;;-2.41;89.45
72525;BME280;60547;48.502;8.996;2023-02-13T05:34:14;99889.47;;;-2.39;89.36
72525;BME280;60547;48.502;8.996;2023-02-13T05:36:40;99897.34;;;-2.38;89.21
72525;BME280;60547;48.502;8.996;2023-02-13T05:39:06;99888.16;;;-2.42;88.89
72525;BME280;60547;48.502;8.996;2023-02-13T05:41:32;99886.03;;;-2.45;89.08
72525;BME280;60547;48.502;8.996;2023-02-13T05:43:58;99884.31;;;-2.41;89.39
72525;BME280;60547;48.502;8.996;2023-02-13T05:46:23;99884.81;;;-2.39;89.78
72525;BME280;60547;48.502;8.996;2023-02-13T05:48:50;99892.78;;;-2.29;90.13
72525;BME280;60547;48.502;8.996;2023-02-13T05:51:15;99885.13;;;-2.26;90.64
72525;BME280;60547;48.502;8.996;2023-02-13T05:53:41;99878.34;;;-2.29;90.68
72525;BME280;60547;48.502;8.996;2023-02-13T05:56:06;99892.00;;;-2.15;90.20
72525;BME280;60547;48.502;8.996;2023-02-13T05:58:33;99891.38;;;-2.12;90.46
72525;BME280;60547;48.502;8.996;2023-02-13T06:00:59;99885.94;;;-2.12;91.19
72525;BME280;60547;48.502;8.996;2023-02-13T06:03:27;99895.03;;;-2.03;90.86
72525;BME280;60547;48.502;8.996;2023-02-13T06:05:54;99897.44;;;-2.02;90.78
72525;BME280;60547;48.502;8.996;2023-02-13T06:08:20;99891.69;;;-2.00;91.13
72525;BME280;60547;48.502;8.996;2023-02-13T06:10:46;99890.38;;;-2.03;90.69
72525;BME280;60547;48.502;8.996;2023-02-13T06:13:12;99891.06;;;-1.97;90.72
72525;BME280;60547;48.502;8.996;2023-02-13T06:15:38;99891.88;;;-1.97;91.05
72525;BME280;60547;48.502;8.996;2023-02-13T06:18:03;99893.81;;;-1.97;91.25
72525;BME280;60547;48.502;8.996;2023-02-13T06:20:31;99906.63;;;-1.84;91.53
72525;BME280;60547;48.502;8.996;2023-02-13T06:22:57;99909.34;;;-1.84;92.02
72525;BME280;60547;48.502;8.996;2023-02-13T06:25:22;99903.28;;;-1.81;91.82
72525;BME280;60547;48.502;8.996;2023-02-13T06:27:48;99905.91;;;-1.76;91.85
72525;BME280;60547;48.502;8.996;2023-02-13T06:30:14;99909.63;;;-1.72;92.03
72525;BME280;60547;48.502;8.996;2023-02-13T06:32:40;99907.50;;;-1.75;92.28
72525;BME280;60547;48.502;8.996;2023-02-13T06:35:06;99912.88;;;-1.70;92.39
72525;BME280;60547;48.502;8.996;2023-02-13T06:37:32;99906.59;;;-1.70;91.97
72525;BME280;60547;48.502;8.996;2023-02-13T06:39:57;99904.28;;;-1.77;91.52
72525;BME280;60547;48.502;8.996;2023-02-13T06:42:23;99911.13;;;-1.66;91.49
72525;BME280;60547;48.502;8.996;2023-02-13T06:44:50;99911.13;;;-1.66;91.77
72525;BME280;60547;48.502;8.996;2023-02-13T06:47:16;99909.53;;;-1.67;91.95
72525;BME280;60547;48.502;8.996;2023-02-13T06:49:41;99912.66;;;-1.59;91.54
72525;BME280;60547;48.502;8.996;2023-02-13T06:52:07;99909.91;;;-1.59;91.62
72525;BME280;60547;48.502;8.996;2023-02-13T06:54:32;99913.16;;;-1.57;91.34
72525;BME280;60547;48.502;8.996;2023-02-13T06:56:58;99927.28;;;-1.55;91.52
72525;BME280;60547;48.502;8.996;2023-02-13T06:59:23;99923.94;;;-1.52;91.43
72525;BME280;60547;48.502;8.996;2023-02-13T07:01:49;99923.75;;;-1.56;91.42
72525;BME280;60547;48.502;8.996;2023-02-13T07:04:14;99931.53;;;-1.49;91.34
72525;BME280;60547;48.502;8.996;2023-02-13T07:06:40;99934.75;;;-1.47;91.53
72525;BME280;60547;48.502;8.996;2023-02-13T07:09:05;99927.78;;;-1.53;91.50
72525;BME280;60547;48.502;8.996;2023-02-13T07:11:31;99919.22;;;-1.60;91.32
72525;BME280;60547;48.502;8.996;2023-02-13T07:13:56;99929.91;;;-1.50;91.75
72525;BME280;60547;48.502;8.996;2023-02-13T07:16:22;99931.53;;;-1.49;91.65
72525;BME280;60547;48.502;8.996;2023-02-13T07:18:47;99932.72;;;-1.42;91.20
72525;BME280;60547;48.502;8.996;2023-02-13T07:21:13;99935.34;;;-1.37;91.30
72525;BME280;60547;48.502;8.996;2023-02-13T07:23:38;99930.09;;;-1.47;91.62
72525;BME280;60547;48.502;8.996;2023-02-13T07:26:04;99942.22;;;-1.39;91.19
72525;BME280;60547;48.502;8.996;2023-02-13T07:28:30;99944.84;;;-1.34;91.29
72525;BME280;60547;48.502;8.996;2023-02-13T07:30:55;99943.22;;;-1.35;90.86
72525;BME280;60547;48.502;8.996;2023-02-13T07:33:21;99931.31;;;-1.39;90.74
72525;BME280;60547;48.502;8.996;2023-02-13T07:35:48;99949.78;;;-1.36;90.54
72525;BME280;60547;48.502;8.996;2023-02-13T07:38:15;99950.78;;;-1.32;90.50
72525;BME280;60547;48.502;8.996;2023-02-13T07:40:40;99936.94;;;-1.36;89.61
72525;BME280;60547;48.502;8.996;2023-02-13T07:43:06;99949.00;;;-1.37;90.32
72525;BME280;60547;48.502;8.996;2023-02-13T07:45:32;99943.38;;;-1.54;90.39
72525;BME280;60547;48.502;8.996;2023-02-13T07:47:57;99948.09;;;-1.46;90.53
72525;BME280;60547;48.502;8.996;2023-02-13T07:50:24;99948.72;;;-1.49;90.66
72525;BME280;60547;48.502;8.996;2023-02-13T07:52:58;99947.28;;;-1.46;90.78
72525;BME280;60547;48.502;8.996;2023-02-13T07:55:25;99957.25;;;-1.28;90.20
72525;BME280;60547;48.502;8.996;2023-02-13T07:57:50;99947.03;;;-1.22;89.71
72525;BME280;60547;48.502;8.996;2023-02-13T08:00:17;99944.91;;;-1.25;89.98
72525;BME280;60547;48.502;8.996;2023-02-13T08:02:44;99950.06;;;-1.24;90.24
72525;BME280;60547;48.502;8.996;2023-02-13T08:05:10;99947.66;;;-1.25;90.69
72525;BME280;60547;48.502;8.996;2023-02-13T08:07:35;99958.88;;;-1.27;90.92
72525;BME280;60547;48.502;8.996;2023-02-13T08:10:02;99952.22;;;-1.35;90.93
72525;BME280;60547;48.502;8.996;2023-02-13T08:12:46;99951.91;;;-1.33;91.18
72525;BME280;60547;48.502;8.996;2023-02-13T08:15:13;99957.34;;;-1.19;91.45
72525;BME280;60547;48.502;8.996;2023-02-13T08:17:39;99960.16;;;-1.11;91.61
72525;BME280;60547;48.502;8.996;2023-02-13T08:20:06;99955.25;;;-1.00;91.42
72525;BME280;60547;48.502;8.996;2023-02-13T08:22:36;99961.28;;;-0.89;91.65
72525;BME280;60547;48.502;8.996;2023-02-13T08:25:02;99950.34;;;-0.89;91.47
72525;BME280;60547;48.502;8.996;2023-02-13T08:27:27;99948.81;;;-0.82;91.88
72525;BME280;60547;48.502;8.996;2023-02-13T08:29:55;99952.41;;;-0.73;92.08
72525;BME280;60547;48.502;8.996;2023-02-13T08:32:21;99956.19;;;-0.60;91.58
72525;BME280;60547;48.502;8.996;2023-02-13T08:34:46;99950.47;;;-0.72;92.37
72525;BME280;60547;48.502;8.996;2023-02-13T08:37:12;99950.34;;;-0.67;92.32
72525;BME280;60547;48.502;8.996;2023-02-13T08:39:37;99952.97;;;-0.62;93.42
72525;BME280;60547;48.502;8.996;2023-02-13T08:42:03;99940.28;;;-0.58;92.01
72525;BME280;60547;48.502;8.996;2023-02-13T08:44:28;99946.13;;;-0.51;92.06
72525;BME280;60547;48.502;8.996;2023-02-13T08:46:54;99943.25;;;-0.46;92.03
72525;BME280;60547;48.502;8.996;2023-02-13T08:49:20;99946.78;;;-0.45;92.48
72525;BME280;60547;48.502;8.996;2023-02-13T08:51:45;99943.78;;;-0.35;92.81
72525;BME280;60547;48.502;8.996;2023-02-13T08:54:11;99939.19;;;-0.26;92.72
72525;BME280;60547;48.502;8.996;2023-02-13T08:56:37;99935.78;;;-0.31;92.65
72525;BME280;60547;48.502;8.996;2023-02-13T08:59:02;99933.25;;;-0.19;92.86
72525;BME280;60547;48.502;8.996;2023-02-13T09:01:28;99929.56;;;-0.15;92.84
72525;BME280;60547;48.502;8.996;2023-02-13T09:03:54;99936.69;;;-0.05;92.48
72525;BME280;60547;48.502;8.996;2023-02-13T09:06:19;99928.81;;;-0.07;92.60
72525;BME280;60547;48.502;8.996;2023-02-13T09:08:45;99920.63;;;0.02;92.69
72525;BME280;60547;48.502;8.996;2023-02-13T09:11:10;99919.03;;;0.10;92.81
72525;BME280;60547;48.502;8.996;2023-02-13T09:13:36;99912.44;;;0.11;93.16
72525;BME280;60547;48.502;8.996;2023-02-13T09:16:03;99930.47;;;0.12;93.98
72525;BME280;60547;48.502;8.996;2023-02-13T09:18:30;99928.13;;;0.27;93.41
72525;BME280;60547;48.502;8.996;2023-02-13T09:21:00;99905.41;;;0.27;94.05
72525;BME280;60547;48.502;8.996;2023-02-13T09:23:26;99915.91;;;0.42;94.06
72525;BME280;60547;48.502;8.996;2023-02-13T09:25:52;99911.56;;;0.41;94.80
72525;BME280;60547;48.502;8.996;2023-02-13T09:28:17;99896.09;;;0.54;94.11
72525;BME280;60547;48.502;8.996;2023-02-13T09:30:43;99892.72;;;0.57;93.12
72525;BME280;60547;48.502;8.996;2023-02-13T09:33:11;99899.50;;;0.68;92.23
72525;BME280;60547;48.502;8.996;2023-02-13T09:35:37;99911.28;;;0.86;92.38
72525;BME280;60547;48.502;8.996;2023-02-13T09:38:05;99910.94;;;0.87;92.01
72525;BME280;60547;48.502;8.996;2023-02-13T09:40:47;99904.66;;;0.95;92.57
72525;BME280;60547;48.502;8.996;2023-02-13T09:45:55;99905.16;;;1.06;91.88
72525;BME280;60547;48.502;8.996;2023-02-13T09:48:29;99907.22;;;1.18;91.47
72525;BME280;60547;48.502;8.996;2023-02-13T09:50:57;99911.25;;;1.29;91.99
72525;BME280;60547;48.502;8.996;2023-02-13T09:53:23;99904.00;;;1.16;91.75
72525;BME280;60547;48.502;8.996;2023-02-13T09:55:59;99907.88;;;1.23;92.06
72525;BME280;60547;48.502;8.996;2023-02-13T10:06:30;99915.53;;;1.56;91.41
72525;BME280;60547;48.502;8.996;2023-02-13T10:09:12;99909.88;;;1.61;92.11
72525;BME280;60547;48.502;8.996;2023-02-13T10:15:01;99917.47;;;2.02;90.93
72525;BME280;60547;48.502;8.996;2023-02-13T10:17:51;99920.88;;;1.99;89.83
72525;BME280;60547;48.502;8.996;2023-02-13T10:20:49;99920.00;;;2.16;90.00
72525;BME280;60547;48.502;8.996;2023-02-13T10:23:26;99911.44;;;2.17;89.62
72525;BME280;60547;48.502;8.996;2023-02-13T10:26:00;99920.63;;;2.21;88.91
72525;BME280;60547;48.502;8.996;2023-02-13T10:28:42;99905.41;;;2.24;88.14
72525;BME280;60547;48.502;8.996;2023-02-13T10:31:12;99921.88;;;2.53;87.23
72525;BME280;60547;48.502;8.996;2023-02-13T10:33:47;99920.69;;;2.63;86.77
72525;BME280;60547;48.502;8.996;2023-02-13T10:36:18;99905.66;;;2.40;86.89
72525;BME280;60547;48.502;8.996;2023-02-13T10:44:47;99914.56;;;3.20;84.96
72525;BME280;60547;48.502;8.996;2023-02-13T10:52:51;99909.75;;;3.17;84.29
72525;BME280;60547;48.502;8.996;2023-02-13T10:55:43;99898.19;;;3.69;82.88
72525;BME280;60547;48.502;8.996;2023-02-13T10:58:18;99893.31;;;4.11;80.84
72525;BME280;60547;48.502;8.996;2023-02-13T11:00:52;99891.81;;;4.38;79.79
72525;BME280;60547;48.502;8.996;2023-02-13T11:03:22;99887.41;;;4.61;79.13
72525;BME280;60547;48.502;8.996;2023-02-13T11:05:48;99887.81;;;4.88;77.67
72525;BME280;60547;48.502;8.996;2023-02-13T11:08:41;99880.81;;;4.78;77.65
72525;BME280;60547;48.502;8.996;2023-02-13T11:19:32;99872.56;;;4.78;77.09
72525;BME280;60547;48.502;8.996;2023-02-13T11:22:03;99878.88;;;5.34;76.25
72525;BME280;60547;48.502;8.996;2023-02-13T11:24:30;99869.66;;;5.74;75.46
72525;BME280;60547;48.502;8.996;2023-02-13T11:27:07;99863.00;;;6.06;73.84
72525;BME280;60547;48.502;8.996;2023-02-13T11:29:37;99868.06;;;5.73;74.52
72525;BME280;60547;48.502;8.996;2023-02-13T11:32:23;99858.47;;;5.98;72.76
72525;BME280;60547;48.502;8.996;2023-02-13T11:34:49;99867.16;;;6.32;73.11
72525;BME280;60547;48.502;8.996;2023-02-13T11:37:22;99864.75;;;6.65;71.50
72525;BME280;60547;48.502;8.996;2023-02-13T11:39:50;99858.75;;;6.79;70.97
72525;BME280;60547;48.502;8.996;2023-02-13T11:42:34;99859.34;;;5.71;72.88
72525;BME280;60547;48.502;8.996;2023-02-13T11:45:03;99842.31;;;6.16;72.70
72525;BME280;60547;48.502;8.996;2023-02-13T11:47:32;99847.94;;;5.88;74.29
72525;BME280;60547;48.502;8.996;2023-02-13T11:49:58;99847.22;;;6.23;73.22
72525;BME280;60547;48.502;8.996;2023-02-13T11:52:30;99846.88;;;6.78;72.02
72525;BME280;60547;48.502;8.996;2023-02-13T11:55:23;99849.13;;;6.73;72.42
72525;BME280;60547;48.502;8.996;2023-02-13T11:57:57;99845.13;;;7.09;70.60
72525;BME280;60547;48.502;8.996;2023-02-13T12:00:32;99838.34;;;7.49;70.07
72525;BME280;60547;48.502;8.996;2023-02-13T12:03:26;99835.41;;;7.84;67.63
72525;BME280;60547;48.502;8.996;2023-02-13T12:08:36;99841.31;;;7.17;69.83
72525;BME280;60547;48.502;8.996;2023-02-13T12:11:07;99830.59;;;7.35;69.46
72525;BME280;60547;48.502;8.996;2023-02-13T12:13:38;99831.66;;;7.50;69.21
72525;BME280;60547;48.502;8.996;2023-02-13T12:16:10;99833.13;;;7.43;69.65
72525;BME280;60547;48.502;8.996;2023-02-13T12:18:44;99825.50;;;7.83;67.64
72525;BME280;60547;48.502;8.996;2023-02-13T12:21:35;99832.28;;;8.12;66.94
72525;BME280;60547;48.502;8.996;2023-02-13T12:27:29;99836.88;;;8.27;66.23
72525;BME280;60547;48.502;8.996;2023-02-13T12:38:26;99818.03;;;8.96;63.99
72525;BME280;60547;48.502;8.996;2023-02-13T12:46:55;99802.25;;;8.70;65.31
72525;BME280;60547;48.502;8.996;2023-02-13T12:49:49;99805.19;;;8.28;66.69
72525;BME280;60547;48.502;8.996;2023-02-13T12:52:35;99810.91;;;8.65;65.07
72525;BME280;60547;48.502;8.996;2023-02-13T13:13:46;99782.28;;;8.91;65.92
72525;BME280;60547;48.502;8.996;2023-02-13T13:19:34;99773.84;;;9.17;64.30
72525;BME280;60547;48.502;8.996;2023-02-13T13:22:17;99772.41;;;9.34;63.81
72525;BME280;60547;48.502;8.996;2023-02-13T13:27:26;99783.22;;;9.05;64.56
72525;BME280;60547;48.502;8.996;2023-02-13T13:29:57;99774.44;;;9.00;63.91
72525;BME280;60547;48.502;8.996;2023-02-13T13:32:25;99768.56;;;9.46;63.73
72525;BME280;60547;48.502;8.996;2023-02-13T13:34:52;99760.22;;;9.46;62.35
72525;BME280;60547;48.502;8.996;2023-02-13T13:37:27;99768.44;;;9.79;62.12
72525;BME280;60547;48.502;8.996;2023-02-13T13:53:05;99763.19;;;9.67;62.00
72525;BME280;60547;48.502;8.996;2023-02-13T13:58:44;99757.00;;;9.91;61.38
72525;BME280;60547;48.502;8.996;2023-02-13T14:03:39;99760.09;;;9.79;61.70
72525;BME280;60547;48.502;8.996;2023-02-13T14:06:08;99758.97;;;9.87;61.67
72525;BME280;60547;48.502;8.996;2023-02-13T14:11:39;99754.75;;;10.11;60.89
72525;BME280;60547;48.502;8.996;2023-02-13T14:16:54;99765.03;;;10.03;60.90
72525;BME280;60547;48.502;8.996;2023-02-13T14:21:48;99762.03;;;10.23;60.15
72525;BME280;60547;48.502;8.996;2023-02-13T14:24:17;99761.31;;;10.40;59.43
72525;BME280;60547;48.502;8.996;2023-02-13T14:26:53;99762.16;;;10.48;59.98
72525;BME280;60547;48.502;8.996;2023-02-13T14:29:24;99758.19;;;10.52;59.63
72525;BME280;60547;48.502;8.996;2023-02-13T14:32:06;99753.78;;;10.44;59.58
72525;BME280;60547;48.502;8.996;2023-02-13T14:34:35;99753.78;;;10.44;59.67
72525;BME280;60547;48.502;8.996;2023-02-13T14:42:45;99741.44;;;10.38;59.42
72525;BME280;60547;48.502;8.996;2023-02-13T14:45:25;99742.88;;;10.18;60.08
72525;BME280;60547;48.502;8.996;2023-02-13T14:47:54;99739.44;;;10.35;59.79
72525;BME280;60547;48.502;8.996;2023-02-13T14:50:26;99751.38;;;10.39;59.69
72525;BME280;60547;48.502;8.996;2023-02-13T14:52:53;99745.38;;;10.30;58.52
72525;BME280;60547;48.502;8.996;2023-02-13T14:55:38;99743.81;;;10.36;59.08
72525;BME280;60547;48.502;8.996;2023-02-13T14:58:12;99742.13;;;10.21;59.47
72525;BME280;60547;48.502;8.996;2023-02-13T15:00:45;99736.06;;;10.04;59.72
72525;BME280;60547;48.502;8.996;2023-02-13T15:03:26;99743.22;;;10.09;60.03
72525;BME280;60547;48.502;8.996;2023-02-13T15:05:56;99730.22;;;10.24;60.48
72525;BME280;60547;48.502;8.996;2023-02-13T15:08:25;99731.88;;;10.35;59.34
72525;BME280;60547;48.502;8.996;2023-02-13T15:10:54;99729.53;;;10.45;59.21
72525;BME280;60547;48.502;8.996;2023-02-13T15:13:29;99735.44;;;10.32;59.50
72525;BME280;60547;48.502;8.996;2023-02-13T15:16:02;99729.03;;;10.25;59.47
72525;BME280;60547;48.502;8.996;2023-02-13T15:18:39;99730.75;;;9.85;60.98
72525;BME280;60547;48.502;8.996;2023-02-13T15:21:12;99720.91;;;9.44;61.70
72525;BME280;60547;48.502;8.996;2023-02-13T15:23:40;99729.59;;;9.38;62.11
72525;BME280;60547;48.502;8.996;2023-02-13T15:26:06;99725.03;;;9.16;63.17
72525;BME280;60547;48.502;8.996;2023-02-13T15:28:34;99723.56;;;8.89;63.63
72525;BME280;60547;48.502;8.996;2023-02-13T15:31:05;99731.47;;;8.87;64.06
72525;BME280;60547;48.502;8.996;2023-02-13T15:33:47;99713.69;;;8.58;64.48
72525;BME280;60547;48.502;8.996;2023-02-13T15:36:17;99727.22;;;8.63;65.18
72525;BME280;60547;48.502;8.996;2023-02-13T15:38:42;99715.91;;;8.45;65.45
72525;BME280;60547;48.502;8.996;2023-02-13T15:41:17;99718.78;;;8.52;65.25
72525;BME280;60547;48.502;8.996;2023-02-13T15:43:47;99716.56;;;8.35;66.25
72525;BME280;60547;48.502;8.996;2023-02-13T15:48:45;99699.00;;;7.97;67.18
72525;BME280;60547;48.502;8.996;2023-02-13T15:51:28;99718.84;;;7.99;67.26
72525;BME280;60547;48.502;8.996;2023-02-13T15:54:06;99713.41;;;7.80;68.09